Terminal Aerodrome Forecast
Issued by NWS

Home | Current Version | Previous Version | Text Only | Print | Product List | Glossary On
Versions: 1 2 3 4 5 6 7 8 9 10 11 12 13 14 15 16 17 18 19 20 21 22 23 24 25 26 27
000
FTUS43 KMKX 201351 AAA
TAFENW
TAF AMD
KENW 201351Z 2014/2112 07005KT 3/4SM -RA BR OVC002
      TEMPO 2014/2018 1/4SM FG OVC003
     FM201800 09005KT 1SM BR OVC003
     FM210000 12004KT 1SM -DZ BR OVC003
     FM210800 12004KT 1/2SM -DZ FG OVC003=

USA.gov is the U.S. government's official web portal to all federal, state and local government web resources and services.